Time;durP1;ratioP1;P1;durP2;ratioP2;P2;SDS_P1;SDS_P2;PMS_P1;PMS_P2;Temp;Humidity;BMP_temperature;BMP_pressure;BME280_temperature;BME280_humidity;BME280_pressure;Samples;Min_cycle;Max_cycle;Signal;HPM_P1;HPM_P2
2021/12/01 00:00:07;;;;;;;;;;;;;;;8.35;92.54;99787.06;4951857;28;19908;-78
2021/12/01 00:02:32;;;;;;;;;;;;;;;8.35;92.87;99785.25;4940596;28;20117;-77
2021/12/01 00:04:57;;;;;;;;;;;;;;;8.52;92.27;99786.31;4955181;28;20189;-78
2021/12/01 00:07:23;;;;;;;;;;;;;;;8.64;91.13;99778.19;4947547;28;20848;-78
2021/12/01 00:09:48;;;;;;;;;;;;;;;8.61;89.24;99778.50;4934725;28;19971;-78
2021/12/01 00:12:13;;;;;;;;;;;;;;;8.52;90.17;99774.94;4953014;28;19919;-78
2021/12/01 00:14:38;;;;;;;;;;;;;;;8.51;89.80;99771.47;4934082;28;20238;-77
2021/12/01 00:17:04;;;;;;;;;;;;;;;8.56;89.91;99771.03;4931710;28;19923;-78
2021/12/01 00:19:29;;;;;;;;;;;;;;;8.57;90.78;99772.69;4955785;28;20160;-77
2021/12/01 00:21:55;;;;;;;;;;;;;;;8.51;90.11;99763.53;4944489;28;19912;-78
2021/12/01 00:24:20;;;;;;;;;;;;;;;8.61;89.60;99757.41;4928468;28;19955;-77
2021/12/01 00:26:46;;;;;;;;;;;;;;;8.65;89.27;99748.22;4930749;28;19920;-77
2021/12/01 00:29:12;;;;;;;;;;;;;;;8.67;88.86;99741.81;4936873;28;20345;-77
2021/12/01 00:31:37;;;;;;;;;;;;;;;8.74;87.59;99731.47;4935657;28;19912;-77
2021/12/01 00:34:02;;;;;;;;;;;;;;;8.70;87.50;99738.03;4955200;28;20706;-77
2021/12/01 00:36:28;;;;;;;;;;;;;;;8.75;87.78;99728.69;4938983;28;20820;-77
2021/12/01 00:38:53;;;;;;;;;;;;;;;8.61;87.99;99728.41;4937978;28;20224;-78
2021/12/01 00:41:21;;;;;;;;;;;;;;;8.69;87.33;99712.66;4918217;28;20352;-77
2021/12/01 00:43:46;;;;;;;;;;;;;;;8.72;87.36;99710.53;4948967;28;19916;-77
2021/12/01 00:46:22;;;;;;;;;;;;;;;8.81;86.86;99705.34;4955562;28;19927;-79
2021/12/01 00:48:47;;;;;;;;;;;;;;;8.82;86.51;99702.53;4954951;28;20001;-78
2021/12/01 00:51:13;;;;;;;;;;;;;;;8.68;86.64;99700.44;4923676;27;19918;-77
2021/12/01 00:53:38;;;;;;;;;;;;;;;8.71;86.42;99687.75;4973390;27;19919;-78
2021/12/01 00:56:03;;;;;;;;;;;;;;;8.64;87.24;99673.53;4978843;27;20055;-78
2021/12/01 00:58:28;;;;;;;;;;;;;;;8.67;87.10;99675.88;4956945;27;20254;-77
2021/12/01 01:00:55;;;;;;;;;;;;;;;8.88;85.49;99682.66;4975187;27;20973;-77
2021/12/01 01:03:20;;;;;;;;;;;;;;;8.79;85.80;99665.09;4959291;27;20648;-77
2021/12/01 01:05:45;;;;;;;;;;;;;;;8.82;85.16;99673.53;4978162;27;19920;-77
2021/12/01 01:08:11;;;;;;;;;;;;;;;8.86;84.52;99669.59;4948600;28;19973;-77
2021/12/01 01:18:34;;;;;;;;;;;;;;;8.76;84.59;99626.66;4960269;28;19965;-77
2021/12/01 01:21:00;;;;;;;;;;;;;;;8.78;84.08;99637.88;4963027;28;19965;-77
2021/12/01 01:23:26;;;;;;;;;;;;;;;8.76;84.13;99621.38;4958943;28;20332;-77
2021/12/01 01:25:56;;;;;;;;;;;;;;;8.90;83.59;99635.84;4948214;28;19949;-77
2021/12/01 01:28:22;;;;;;;;;;;;;;;8.85;82.65;99617.81;4962184;28;20342;-79
2021/12/01 01:30:48;;;;;;;;;;;;;;;8.71;84.09;99613.91;4946219;28;19912;-77
2021/12/01 01:33:13;;;;;;;;;;;;;;;8.80;83.58;99620.09;4960031;28;19909;-77
2021/12/01 01:35:38;;;;;;;;;;;;;;;8.80;83.32;99620.09;4946314;28;20160;-77
2021/12/01 01:38:03;;;;;;;;;;;;;;;8.75;83.15;99606.53;4978230;28;20259;-77
2021/12/01 01:40:29;;;;;;;;;;;;;;;8.78;83.02;99608.88;4986663;28;20232;-77
2021/12/01 01:42:54;;;;;;;;;;;;;;;8.81;81.89;99610.38;4968150;28;20289;-77
2021/12/01 01:45:19;;;;;;;;;;;;;;;8.76;82.33;99616.94;4969034;28;20030;-77
2021/12/01 01:47:49;;;;;;;;;;;;;;;8.99;nan;99612.97;4950617;28;19901;-77
2021/12/01 01:52:43;;;;;;;;;;;;;;;8.84;80.68;99610.91;5004735;28;20044;-78
2021/12/01 01:55:08;;;;;;;;;;;;;;;8.92;81.21;99594.28;5009112;28;20351;-78
2021/12/01 01:57:33;;;;;;;;;;;;;;;8.71;81.64;99590.19;4990142;28;20202;-78
2021/12/01 01:59:59;;;;;;;;;;;;;;;8.77;81.30;99592.22;5009168;28;20388;-78
2021/12/01 02:02:24;;;;;;;;;;;;;;;8.69;81.25;99594.78;4989874;28;19908;-78
2021/12/01 02:04:49;;;;;;;;;;;;;;;8.90;80.64;99581.25;4990011;28;20421;-78
2021/12/01 02:07:14;;;;;;;;;;;;;;;8.89;80.90;99581.41;4968565;28;20481;-78
2021/12/01 02:09:40;;;;;;;;;;;;;;;8.81;80.97;99584.81;4969164;28;20022;-77
2021/12/01 02:12:05;;;;;;;;;;;;;;;8.97;80.08;99567.44;4988986;28;20083;-78
2021/12/01 02:14:30;;;;;;;;;;;;;;;8.74;80.97;99554.75;5006552;28;20193;-78
2021/12/01 02:16:56;;;;;;;;;;;;;;;8.82;80.19;99549.53;4957876;28;20017;-77
2021/12/01 02:19:21;;;;;;;;;;;;;;;8.74;80.22;99539.78;4969658;28;19915;-78
2021/12/01 02:21:47;;;;;;;;;;;;;;;8.67;81.33;99536.13;4961826;28;19913;-78
2021/12/01 02:24:12;;;;;;;;;;;;;;;8.69;81.03;99528.03;4986939;28;19911;-78
2021/12/01 02:26:38;;;;;;;;;;;;;;;8.69;80.71;99512.22;5002717;28;19920;-78
2021/12/01 02:29:05;;;;;;;;;;;;;;;8.63;81.46;99505.75;5009163;28;20350;-78
2021/12/01 02:31:34;;;;;;;;;;;;;;;8.67;81.44;99500.97;5030602;27;20375;-77
2021/12/01 02:33:59;;;;;;;;;;;;;;;8.83;80.90;99503.72;4993601;28;20418;-77
2021/12/01 02:36:25;;;;;;;;;;;;;;;8.87;79.31;99491.03;5007577;28;20615;-78
2021/12/01 02:38:50;;;;;;;;;;;;;;;8.72;80.30;99481.06;5005103;28;20390;-78
2021/12/01 02:41:16;;;;;;;;;;;;;;;8.66;79.22;99475.59;4987644;28;20447;-78
2021/12/01 02:43:41;;;;;;;;;;;;;;;8.70;79.63;99464.59;4987633;28;19923;-78
2021/12/01 02:46:06;;;;;;;;;;;;;;;8.69;80.46;99464.75;4988458;28;20353;-78
2021/12/01 02:48:35;;;;;;;;;;;;;;;8.56;81.17;99473.91;4988726;28;19914;-78
2021/12/01 02:51:03;;;;;;;;;;;;;;;8.53;81.67;99470.72;4978975;28;20135;-78
2021/12/01 02:53:28;;;;;;;;;;;;;;;8.46;81.68;99446.81;4989738;28;20029;-78
2021/12/01 02:55:54;;;;;;;;;;;;;;;8.40;83.07;99444.75;4989312;28;20682;-78
2021/12/01 02:58:20;;;;;;;;;;;;;;;8.40;81.96;99439.47;4972624;28;19900;-78
2021/12/01 03:00:45;;;;;;;;;;;;;;;8.33;82.27;99433.19;4990640;28;20760;-78
2021/12/01 03:03:11;;;;;;;;;;;;;;;8.34;82.41;99437.47;4974864;28;19907;-78
2021/12/01 03:05:37;;;;;;;;;;;;;;;8.31;81.63;99429.88;5006516;27;20171;-80
2021/12/01 03:08:02;;;;;;;;;;;;;;;8.27;81.52;99428.53;5001633;28;20269;-78
2021/12/01 03:10:27;;;;;;;;;;;;;;;8.30;81.73;99418.50;4970884;28;20710;-78
2021/12/01 03:12:52;;;;;;;;;;;;;;;8.39;80.41;99417.56;5005744;28;19908;-78
2021/12/01 03:15:19;;;;;;;;;;;;;;;8.39;80.49;99414.09;5003835;28;19911;-78
2021/12/01 03:17:44;;;;;;;;;;;;;;;8.23;81.48;99407.75;5002710;28;20266;-78
2021/12/01 03:20:10;;;;;;;;;;;;;;;8.30;80.71;99402.69;4989938;27;20618;-79
2021/12/01 03:22:35;;;;;;;;;;;;;;;8.25;79.50;99397.88;5003226;27;20691;-79
2021/12/01 03:25:00;;;;;;;;;;;;;;;8.29;79.23;99389.66;4993221;27;20329;-80
2021/12/01 03:27:25;;;;;;;;;;;;;;;8.29;79.01;99394.94;4998810;28;20271;-79
2021/12/01 03:29:51;;;;;;;;;;;;;;;8.18;79.20;99394.22;4974705;28;20145;-79
2021/12/01 03:32:16;;;;;;;;;;;;;;;8.26;79.33;99398.69;4996128;28;20384;-79
2021/12/01 03:34:42;;;;;;;;;;;;;;;8.33;78.62;99380.47;4973515;28;20136;-79
2021/12/01 03:37:07;;;;;;;;;;;;;;;8.29;78.89;99379.13;4992850;28;20198;-79
2021/12/01 03:39:32;;;;;;;;;;;;;;;8.24;78.80;99380.41;4975228;28;20315;-79
2021/12/01 03:41:58;;;;;;;;;;;;;;;8.15;79.57;99372.59;4973143;28;19972;-79
2021/12/01 03:44:23;;;;;;;;;;;;;;;8.24;78.44;99372.50;4987087;27;20344;-80
2021/12/01 03:46:48;;;;;;;;;;;;;;;8.22;78.25;99374.47;5011375;27;19919;-80
2021/12/01 03:49:13;;;;;;;;;;;;;;;8.31;78.34;99374.53;4992999;27;20005;-80
2021/12/01 03:51:39;;;;;;;;;;;;;;;8.19;78.84;99374.78;4990658;28;20206;-80
2021/12/01 03:54:04;;;;;;;;;;;;;;;8.22;77.89;99369.22;5009444;27;20347;-80
2021/12/01 03:56:30;;;;;;;;;;;;;;;8.16;77.85;99366.34;5015037;27;20300;-80
2021/12/01 03:58:56;;;;;;;;;;;;;;;8.11;78.21;99366.00;4995303;27;20286;-79
2021/12/01 04:01:21;;;;;;;;;;;;;;;8.03;78.92;99358.88;4995342;27;19908;-80
2021/12/01 04:03:46;;;;;;;;;;;;;;;8.07;78.57;99349.69;5013511;27;20624;-79
2021/12/01 04:06:11;;;;;;;;;;;;;;;8.09;78.16;99337.16;5010065;27;19930;-80
2021/12/01 04:08:37;;;;;;;;;;;;;;;8.11;78.88;99327.31;5009850;27;20333;-80
2021/12/01 04:11:02;;;;;;;;;;;;;;;8.14;78.78;99324.34;4999241;27;19944;-80
2021/12/01 04:13:28;;;;;;;;;;;;;;;8.12;79.01;99310.50;5025332;27;20290;-78
2021/12/01 04:15:53;;;;;;;;;;;;;;;8.05;79.64;99307.69;5011080;27;19968;-78
2021/12/01 04:18:18;;;;;;;;;;;;;;;8.17;78.86;99305.59;5029701;27;20812;-78
2021/12/01 04:20:43;;;;;;;;;;;;;;;8.02;79.14;99293.97;5010346;27;20712;-78
2021/12/01 04:23:08;;;;;;;;;;;;;;;7.99;79.43;99295.13;4993715;27;20525;-79
2021/12/01 04:25:34;;;;;;;;;;;;;;;8.04;79.68;99284.13;5009415;27;20262;-79
2021/12/01 04:27:59;;;;;;;;;;;;;;;8.07;79.08;99278.53;5010551;27;19994;-79
2021/12/01 04:30:25;;;;;;;;;;;;;;;8.08;78.71;99278.38;5011100;27;19944;-79
2021/12/01 04:32:51;;;;;;;;;;;;;;;7.90;79.54;99267.09;4999171;27;20377;-78
2021/12/01 04:35:18;;;;;;;;;;;;;;;7.86;79.90;99255.22;5029617;27;20379;-78
2021/12/01 04:37:44;;;;;;;;;;;;;;;7.96;78.84;99257.75;5003528;27;20235;-79
2021/12/01 04:40:09;;;;;;;;;;;;;;;8.14;78.22;99250.59;4989330;28;19964;-79
2021/12/01 04:42:34;;;;;;;;;;;;;;;7.94;78.92;99228.09;5011485;27;19920;-79
2021/12/01 04:45:00;;;;;;;;;;;;;;;7.88;78.96;99225.13;5008506;27;19930;-79
2021/12/01 04:47:30;;;;;;;;;;;;;;;7.87;78.71;99212.91;4989576;28;20294;-78
2021/12/01 04:49:56;;;;;;;;;;;;;;;8.06;78.67;99211.03;5011840;27;19908;-78
2021/12/01 04:52:21;;;;;;;;;;;;;;;7.86;79.53;99206.00;5000861;27;19945;-78
2021/12/01 04:54:46;;;;;;;;;;;;;;;7.98;78.55;99201.28;4991025;28;20396;-78
2021/12/01 04:57:12;;;;;;;;;;;;;;;7.98;78.85;99205.72;4990091;28;20313;-78
2021/12/01 04:59:37;;;;;;;;;;;;;;;7.95;78.69;99200.78;4993803;28;20397;-78
2021/12/01 05:02:02;;;;;;;;;;;;;;;7.97;78.13;99191.72;4974740;28;20167;-78
2021/12/01 05:04:28;;;;;;;;;;;;;;;8.04;78.58;99191.94;4979425;28;20373;-77
2021/12/01 05:06:53;;;;;;;;;;;;;;;7.93;78.03;99189.59;4992093;27;20297;-77
2021/12/01 05:09:18;;;;;;;;;;;;;;;7.81;79.22;99186.38;5028205;27;20108;-77
2021/12/01 05:11:43;;;;;;;;;;;;;;;8.01;77.64;99177.25;4993444;27;19927;-79
2021/12/01 05:14:09;;;;;;;;;;;;;;;8.03;77.92;99175.28;4993249;27;19903;-79
2021/12/01 05:16:36;;;;;;;;;;;;;;;7.87;77.78;99165.53;4993313;27;19928;-78
2021/12/01 05:19:02;;;;;;;;;;;;;;;7.82;78.19;99165.16;5007135;27;20273;-81
2021/12/01 05:21:27;;;;;;;;;;;;;;;7.94;77.56;99157.81;4993107;27;20271;-79
2021/12/01 05:23:52;;;;;;;;;;;;;;;7.85;78.06;99164.84;5007821;27;20323;-79
2021/12/01 05:26:19;;;;;;;;;;;;;;;7.81;77.97;99168.78;5010552;27;20164;-79
2021/12/01 05:28:44;;;;;;;;;;;;;;;7.80;77.76;99153.97;5011342;27;19923;-80
2021/12/01 05:31:10;;;;;;;;;;;;;;;7.74;77.72;99144.06;5026855;27;19971;-79
2021/12/01 05:33:35;;;;;;;;;;;;;;;7.78;77.89;99131.41;5029818;27;20146;-79
2021/12/01 05:36:00;;;;;;;;;;;;;;;7.70;78.66;99122.50;5001349;27;21339;-78
2021/12/01 05:38:26;;;;;;;;;;;;;;;7.63;78.97;99125.91;4997716;27;20014;-78
2021/12/01 05:40:51;;;;;;;;;;;;;;;7.68;78.33;99116.53;5006631;27;20273;-79
2021/12/01 05:43:16;;;;;;;;;;;;;;;7.67;78.56;99100.91;4997173;27;20317;-79
2021/12/01 05:45:42;;;;;;;;;;;;;;;7.59;79.38;99091.19;4990394;27;20305;-78
2021/12/01 05:48:07;;;;;;;;;;;;;;;7.53;79.60;99094.44;5001414;27;20481;-78
2021/12/01 05:50:32;;;;;;;;;;;;;;;7.67;79.50;99080.69;5000382;27;20238;-78
2021/12/01 05:52:58;;;;;;;;;;;;;;;7.52;79.88;99077.81;4990825;27;20531;-78
2021/12/01 05:55:23;;;;;;;;;;;;;;;7.45;81.38;99068.09;4999364;27;19934;-78
2021/12/01 05:57:49;;;;;;;;;;;;;;;7.44;81.66;99054.09;4984414;27;20326;-78
2021/12/01 06:00:14;;;;;;;;;;;;;;;7.48;81.73;99044.09;4995725;27;19904;-79
2021/12/01 06:02:42;;;;;;;;;;;;;;;7.42;82.53;99040.28;4998281;27;20188;-78
2021/12/01 06:05:07;;;;;;;;;;;;;;;7.42;82.83;99016.59;4998992;27;20119;-78
2021/12/01 06:07:33;;;;;;;;;;;;;;;7.32;83.64;99002.72;4996929;28;19931;-78
2021/12/01 06:10:01;;;;;;;;;;;;;;;7.17;84.59;99002.53;4994027;28;20270;-76
2021/12/01 06:12:27;;;;;;;;;;;;;;;7.24;84.10;98986.94;5011121;27;20079;-77
2021/12/01 06:14:53;;;;;;;;;;;;;;;7.26;83.80;98977.06;4980265;28;20337;-78
2021/12/01 06:17:18;;;;;;;;;;;;;;;7.22;84.46;98972.13;5000294;28;20309;-77
2021/12/01 06:19:43;;;;;;;;;;;;;;;7.22;84.05;98974.75;5002128;28;20238;-78
2021/12/01 06:22:08;;;;;;;;;;;;;;;7.16;84.47;98983.28;5002207;28;19915;-78
2021/12/01 06:24:35;;;;;;;;;;;;;;;7.10;83.99;98972.56;5006434;28;20296;-78
2021/12/01 06:27:01;;;;;;;;;;;;;;;7.27;83.36;98973.47;4983937;28;19919;-78
2021/12/01 06:29:26;;;;;;;;;;;;;;;7.27;82.75;98968.19;5002944;28;20254;-78
2021/12/01 06:31:51;;;;;;;;;;;;;;;7.32;82.38;98965.91;4999574;28;20266;-78
2021/12/01 06:34:16;;;;;;;;;;;;;;;7.58;81.45;98952.66;4991787;27;20848;-77
2021/12/01 06:36:42;;;;;;;;;;;;;;;7.46;81.35;98957.41;4993946;27;20265;-77
2021/12/01 06:39:07;;;;;;;;;;;;;;;7.35;82.32;98947.19;5013979;27;19916;-78
2021/12/01 06:41:32;;;;;;;;;;;;;;;7.40;82.32;98931.72;4993985;27;20729;-79
2021/12/01 06:43:57;;;;;;;;;;;;;;;7.37;82.79;98937.31;4994113;27;19934;-78
2021/12/01 06:46:23;;;;;;;;;;;;;;;7.42;82.02;98934.19;4977210;28;20247;-78
2021/12/01 06:48:48;;;;;;;;;;;;;;;7.33;82.76;98930.72;4989406;28;19952;-78
2021/12/01 06:51:13;;;;;;;;;;;;;;;7.34;81.82;98929.75;4985393;28;20505;-78
2021/12/01 06:53:39;;;;;;;;;;;;;;;7.36;81.50;98911.97;4974925;28;20292;-76
2021/12/01 06:56:04;;;;;;;;;;;;;;;7.46;79.76;98899.50;4979392;28;20262;-77
2021/12/01 06:58:29;;;;;;;;;;;;;;;7.68;79.13;98902.47;4987655;28;19920;-77
2021/12/01 07:00:54;;;;;;;;;;;;;;;7.60;79.10;98891.94;4993416;28;20726;-77
2021/12/01 07:03:20;;;;;;;;;;;;;;;7.55;78.80;98897.69;4992162;28;19919;-77
2021/12/01 07:05:45;;;;;;;;;;;;;;;7.57;79.42;98895.72;4987233;28;20301;-76
2021/12/01 07:08:10;;;;;;;;;;;;;;;7.62;78.56;98895.25;4983705;28;20593;-77
2021/12/01 07:10:35;;;;;;;;;;;;;;;7.62;78.31;98887.34;4974973;28;20132;-76
2021/12/01 07:13:01;;;;;;;;;;;;;;;7.56;78.71;98887.00;4988833;28;20725;-77
2021/12/01 07:15:26;;;;;;;;;;;;;;;7.55;78.28;98876.66;4972256;27;20048;-77
2021/12/01 07:17:51;;;;;;;;;;;;;;;7.66;78.31;98878.16;4993318;28;20708;-77
2021/12/01 07:20:16;;;;;;;;;;;;;;;7.77;77.11;98872.56;4986008;27;19944;-75
2021/12/01 07:22:42;;;;;;;;;;;;;;;7.72;77.06;98877.47;4982595;28;20519;-77
2021/12/01 07:25:07;;;;;;;;;;;;;;;7.69;77.80;98875.19;4976785;27;20017;-77
2021/12/01 07:27:32;;;;;;;;;;;;;;;7.89;76.97;98878.28;4995915;27;20159;-76
2021/12/01 07:29:57;;;;;;;;;;;;;;;7.81;77.42;98865.13;4987763;27;19961;-75
2021/12/01 07:32:23;;;;;;;;;;;;;;;7.77;77.78;98858.53;4990347;27;20259;-76
2021/12/01 07:34:48;;;;;;;;;;;;;;;7.75;77.51;98858.72;4992891;28;20109;-76
2021/12/01 07:37:17;;;;;;;;;;;;;;;7.94;76.70;98865.47;4997356;27;19904;-76
2021/12/01 07:39:42;;;;;;;;;;;;;;;7.92;77.29;98851.63;4992986;28;20315;-76
2021/12/01 07:42:08;;;;;;;;;;;;;;;7.94;77.03;98849.66;4976602;28;20722;-76
2021/12/01 07:44:33;;;;;;;;;;;;;;;8.13;76.59;98852.91;4985481;27;20024;-77
2021/12/01 07:46:58;;;;;;;;;;;;;;;7.91;76.84;98845.53;4974124;28;20944;-77
2021/12/01 07:49:23;;;;;;;;;;;;;;;8.12;75.63;98835.47;4994985;28;19968;-77
2021/12/01 07:51:49;;;;;;;;;;;;;;;8.06;76.83;98843.03;4952316;28;20544;-76
2021/12/01 07:54:14;;;;;;;;;;;;;;;8.06;75.88;98834.31;4952158;28;19976;-76
2021/12/01 07:56:39;;;;;;;;;;;;;;;7.99;76.79;98826.25;4986007;28;20250;-75
2021/12/01 07:59:05;;;;;;;;;;;;;;;8.10;75.65;98827.72;4990045;28;19953;-75
2021/12/01 08:01:30;;;;;;;;;;;;;;;8.28;75.19;98824.88;4981262;28;20004;-76
2021/12/01 08:03:55;;;;;;;;;;;;;;;8.27;74.88;98810.06;4971388;28;19915;-76
2021/12/01 08:06:21;;;;;;;;;;;;;;;8.19;75.73;98810.91;4969031;27;20419;-76
2021/12/01 08:08:46;;;;;;;;;;;;;;;8.13;76.04;98805.50;4976893;27;20164;-77
2021/12/01 08:11:11;;;;;;;;;;;;;;;8.19;75.93;98796.91;4990700;27;19903;-76
2021/12/01 08:13:37;;;;;;;;;;;;;;;8.17;75.96;98796.28;5004975;27;20400;-76
2021/12/01 08:16:02;;;;;;;;;;;;;;;8.23;75.62;98788.50;4989858;27;19907;-75
2021/12/01 08:18:28;;;;;;;;;;;;;;;8.30;74.68;98795.72;5009584;27;20261;-77
2021/12/01 08:20:53;;;;;;;;;;;;;;;8.38;74.97;98790.44;4982668;28;19941;-76
2021/12/01 08:23:18;;;;;;;;;;;;;;;8.29;75.78;98794.91;5004058;27;20133;-76
2021/12/01 08:25:43;;;;;;;;;;;;;;;8.43;74.98;98785.44;4993069;27;20021;-76
2021/12/01 08:28:09;;;;;;;;;;;;;;;8.33;75.17;98790.91;4976983;27;19998;-75
2021/12/01 08:30:34;;;;;;;;;;;;;;;8.32;75.49;98777.91;4992028;27;20152;-75
2021/12/01 08:32:59;;;;;;;;;;;;;;;8.36;75.61;98763.41;4996689;27;20407;-76
2021/12/01 08:35:25;;;;;;;;;;;;;;;8.48;75.47;98774.44;4980576;28;20293;-76
2021/12/01 08:37:50;;;;;;;;;;;;;;;8.31;76.75;98787.66;4982716;27;19900;-76
2021/12/01 08:40:18;;;;;;;;;;;;;;;8.39;76.63;98760.44;4975511;28;20834;-77
2021/12/01 08:42:43;;;;;;;;;;;;;;;8.19;77.60;98768.75;4993117;27;20054;-76
2021/12/01 08:45:08;;;;;;;;;;;;;;;8.20;77.42;98759.03;4993027;27;19910;-76
2021/12/01 08:47:34;;;;;;;;;;;;;;;8.08;77.56;98759.41;5004333;28;20208;-77
2021/12/01 08:49:59;;;;;;;;;;;;;;;8.20;77.06;98759.84;4997363;27;19910;-77
2021/12/01 08:52:25;;;;;;;;;;;;;;;8.22;77.53;98755.25;5007251;27;19912;-77
2021/12/01 08:54:50;;;;;;;;;;;;;;;8.17;77.51;98748.84;4986940;27;19904;-77
2021/12/01 08:57:15;;;;;;;;;;;;;;;8.22;77.81;98743.88;5007240;27;20180;-77
2021/12/01 08:59:40;;;;;;;;;;;;;;;8.25;77.84;98735.63;4988745;27;20364;-77
2021/12/01 09:02:06;;;;;;;;;;;;;;;8.30;77.69;98745.66;4994135;27;20146;-77
2021/12/01 09:04:31;;;;;;;;;;;;;;;8.24;77.71;98731.34;5008077;27;20221;-77
2021/12/01 09:06:56;;;;;;;;;;;;;;;8.33;78.71;98743.50;4988699;28;20167;-77
2021/12/01 09:09:21;;;;;;;;;;;;;;;8.29;79.02;98726.41;5002687;28;20249;-77
2021/12/01 09:11:47;;;;;;;;;;;;;;;8.16;80.20;98719.03;5001116;28;19900;-76
2021/12/01 09:14:12;;;;;;;;;;;;;;;8.23;81.10;98727.06;5005063;28;20656;-77
2021/12/01 09:16:38;;;;;;;;;;;;;;;8.12;80.93;98719.53;4979343;28;20337;-77
2021/12/01 09:19:03;;;;;;;;;;;;;;;8.03;81.62;98718.75;5018668;27;20546;-77
2021/12/01 09:21:28;;;;;;;;;;;;;;;8.01;82.18;98707.56;5001946;27;20320;-77
2021/12/01 09:23:54;;;;;;;;;;;;;;;8.08;82.09;98714.63;4998862;27;20150;-77
2021/12/01 09:26:19;;;;;;;;;;;;;;;8.02;83.60;98698.69;4999667;27;19919;-77
2021/12/01 09:28:44;;;;;;;;;;;;;;;8.02;83.03;98696.03;4986232;28;20572;-78
2021/12/01 09:31:10;;;;;;;;;;;;;;;8.12;82.36;98695.84;4982638;28;20029;-77
2021/12/01 09:33:35;;;;;;;;;;;;;;;8.10;83.39;98689.94;4986859;28;19934;-78
2021/12/01 09:36:01;;;;;;;;;;;;;;;8.12;83.60;98694.00;4983965;28;20194;-77
2021/12/01 09:38:26;;;;;;;;;;;;;;;8.05;84.06;98682.53;4998837;28;20345;-76
2021/12/01 09:40:52;;;;;;;;;;;;;;;8.04;84.87;98670.38;4981476;27;20405;-77
2021/12/01 09:43:18;;;;;;;;;;;;;;;8.15;82.68;98674.41;5000384;27;20091;-77
2021/12/01 09:45:43;;;;;;;;;;;;;;;8.12;83.90;98678.22;4986910;28;20270;-77
2021/12/01 09:48:09;;;;;;;;;;;;;;;8.08;84.28;98680.38;4987704;27;20132;-78
2021/12/01 09:50:34;;;;;;;;;;;;;;;8.18;84.43;98674.91;5009281;27;19953;-77
2021/12/01 09:52:59;;;;;;;;;;;;;;;8.16;84.48;98666.34;5001437;28;20017;-78
2021/12/01 09:55:24;;;;;;;;;;;;;;;8.06;84.71;98668.38;4999058;27;19911;-76
2021/12/01 09:57:53;;;;;;;;;;;;;;;8.08;85.60;98661.13;5001373;28;20734;-76
2021/12/01 10:00:18;;;;;;;;;;;;;;;8.12;85.70;98665.03;5017651;27;20116;-76
2021/12/01 10:02:43;;;;;;;;;;;;;;;8.14;85.16;98655.16;4982280;28;19908;-76
2021/12/01 10:05:08;;;;;;;;;;;;;;;8.24;84.66;98652.31;5005614;27;20069;-76
2021/12/01 10:07:34;;;;;;;;;;;;;;;8.17;84.59;98644.28;5000855;27;19918;-77
2021/12/01 10:10:04;;;;;;;;;;;;;;;8.14;84.98;98639.34;5006368;27;20162;-76
2021/12/01 10:12:49;;;;;;;;;;;;;;;8.24;83.96;98639.94;4993418;28;19913;-77
2021/12/01 10:15:14;;;;;;;;;;;;;;;8.19;84.09;98634.41;4963496;28;20383;-76
2021/12/01 10:17:39;;;;;;;;;;;;;;;8.23;83.91;98627.78;5019889;28;20210;-76
2021/12/01 10:20:12;;;;;;;;;;;;;;;8.36;84.56;98614.03;4998777;28;20154;-77
2021/12/01 10:22:37;;;;;;;;;;;;;;;8.27;83.62;98611.63;4994716;28;19908;-77
2021/12/01 10:25:02;;;;;;;;;;;;;;;8.38;82.58;98621.75;4996906;28;20315;-77
2021/12/01 10:27:28;;;;;;;;;;;;;;;8.45;81.92;98609.56;5004141;28;19931;-76
2021/12/01 10:29:53;;;;;;;;;;;;;;;8.36;83.18;98607.94;5003769;27;20161;-77
2021/12/01 10:32:19;;;;;;;;;;;;;;;8.43;82.71;98611.50;4991765;28;19911;-78
2021/12/01 10:34:50;;;;;;;;;;;;;;;8.41;82.59;98609.03;4989413;28;20258;-77
2021/12/01 10:37:18;;;;;;;;;;;;;;;8.40;82.63;98606.59;4968057;28;19907;-77
2021/12/01 10:39:44;;;;;;;;;;;;;;;8.46;81.64;98592.75;4988947;28;20004;-77
2021/12/01 10:42:11;;;;;;;;;;;;;;;8.50;81.69;98583.50;4970756;28;20686;-77
2021/12/01 10:44:36;;;;;;;;;;;;;;;8.53;80.15;98585.78;4962895;28;20125;-77
2021/12/01 10:47:09;;;;;;;;;;;;;;;8.62;80.58;98585.72;4974579;28;20727;-78
2021/12/01 10:49:40;;;;;;;;;;;;;;;8.55;82.04;98580.31;4971714;28;20172;-77
2021/12/01 10:52:06;;;;;;;;;;;;;;;8.70;80.89;98575.91;4964681;28;20447;-77
2021/12/01 10:54:32;;;;;;;;;;;;;;;8.68;80.89;98575.25;4974968;28;20243;-76
2021/12/01 10:57:16;;;;;;;;;;;;;;;8.68;80.85;98571.81;4968027;28;19904;-77
2021/12/01 10:59:42;;;;;;;;;;;;;;;8.80;81.17;98570.38;4970036;28;20281;-76
2021/12/01 11:02:11;;;;;;;;;;;;;;;8.75;79.93;98565.63;4962490;28;19912;-78
2021/12/01 11:04:43;;;;;;;;;;;;;;;8.78;80.54;98561.81;4995166;28;19915;-78
2021/12/01 11:07:22;;;;;;;;;;;;;;;8.97;79.87;98557.84;5019645;27;19957;-78
2021/12/01 11:09:47;;;;;;;;;;;;;;;8.90;79.70;98549.84;5006925;28;20378;-78
2021/12/01 11:12:13;;;;;;;;;;;;;;;8.85;80.36;98557.47;4987368;28;20286;-78
2021/12/01 11:14:41;;;;;;;;;;;;;;;8.83;80.17;98553.38;4999656;28;20005;-77
2021/12/01 11:17:07;;;;;;;;;;;;;;;9.08;79.21;98549.50;4996848;27;19908;-77
2021/12/01 11:19:32;;;;;;;;;;;;;;;9.04;79.89;98544.75;4976831;27;20098;-76
2021/12/01 11:21:58;;;;;;;;;;;;;;;9.06;79.50;98526.94;4966916;27;20498;-76
2021/12/01 11:24:23;;;;;;;;;;;;;;;9.27;79.02;98529.66;4961023;27;20141;-75
2021/12/01 11:26:48;;;;;;;;;;;;;;;9.22;78.64;98521.47;4979391;27;20416;-75
2021/12/01 11:29:14;;;;;;;;;;;;;;;9.26;79.22;98530.66;4979725;27;19948;-78
2021/12/01 11:31:43;;;;;;;;;;;;;;;9.18;79.66;98522.84;4978065;27;20574;-75
2021/12/01 11:34:10;;;;;;;;;;;;;;;9.23;78.88;98523.09;4996260;27;20184;-77
2021/12/01 11:36:40;;;;;;;;;;;;;;;9.48;77.79;98520.16;5005597;27;20361;-75
2021/12/01 11:39:06;;;;;;;;;;;;;;;9.42;78.79;98513.81;5004918;27;20671;-75
2021/12/01 11:41:33;;;;;;;;;;;;;;;9.43;78.85;98520.72;5001447;27;19960;-74
2021/12/01 11:43:59;;;;;;;;;;;;;;;9.47;78.78;98493.94;5014148;27;19923;-74
2021/12/01 11:46:24;;;;;;;;;;;;;;;9.36;80.24;98495.25;5009894;27;20138;-75
2021/12/01 11:48:53;;;;;;;;;;;;;;;9.37;78.60;98524.09;5015611;27;19912;-76
2021/12/01 11:51:18;;;;;;;;;;;;;;;9.50;78.52;98504.13;4998297;28;19908;-75
2021/12/01 11:53:55;;;;;;;;;;;;;;;9.42;79.18;98505.88;5003166;28;19915;-75
2021/12/01 11:56:22;;;;;;;;;;;;;;;9.49;79.05;98495.41;4982943;28;20258;-75
2021/12/01 11:59:20;;;;;;;;;;;;;;;9.40;79.64;98502.59;4986396;28;20026;-75
2021/12/01 12:01:45;;;;;;;;;;;;;;;9.23;80.78;98491.41;4986358;27;20512;-76
2021/12/01 12:04:14;;;;;;;;;;;;;;;9.24;81.43;98497.53;5005499;27;20227;-76
2021/12/01 12:06:46;;;;;;;;;;;;;;;9.18;82.75;98499.09;4993614;28;20189;-77
2021/12/01 12:09:12;;;;;;;;;;;;;;;9.16;83.34;98503.72;4983400;28;20256;-77
2021/12/01 12:11:47;;;;;;;;;;;;;;;9.19;83.72;98505.19;5003170;28;20190;-76
2021/12/01 12:14:15;;;;;;;;;;;;;;;9.09;83.95;98501.00;5007977;27;20432;-75
2021/12/01 12:16:41;;;;;;;;;;;;;;;9.16;83.35;98497.63;5018824;27;20205;-76
2021/12/01 12:19:06;;;;;;;;;;;;;;;9.05;83.92;98493.63;5000615;27;19908;-76
2021/12/01 12:24:05;;;;;;;;;;;;;;;8.99;84.46;98489.91;4986970;28;21248;-75
2021/12/01 12:26:34;;;;;;;;;;;;;;;8.78;85.07;98498.53;4998561;27;19932;-80
2021/12/01 12:29:13;;;;;;;;;;;;;;;8.84;86.13;98503.09;4990920;28;20173;-75
2021/12/01 12:31:39;;;;;;;;;;;;;;;8.85;85.81;98506.53;4985557;28;19911;-76
2021/12/01 12:34:08;;;;;;;;;;;;;;;8.81;86.78;98513.97;4975838;28;20810;-77
2021/12/01 12:36:38;;;;;;;;;;;;;;;8.80;86.70;98517.63;4987425;28;20009;-76
2021/12/01 12:39:04;;;;;;;;;;;;;;;8.74;87.20;98518.34;4983033;28;20083;-76
2021/12/01 12:41:29;;;;;;;;;;;;;;;8.71;84.84;98523.97;5001635;28;19996;-75
2021/12/01 12:43:54;;;;;;;;;;;;;;;8.45;83.31;98521.72;4992276;28;20242;-76
2021/12/01 12:46:20;;;;;;;;;;;;;;;8.60;83.27;98530.50;5012578;28;19920;-76
2021/12/01 12:48:49;;;;;;;;;;;;;;;8.36;83.24;98526.22;5008063;28;20979;-75
2021/12/01 12:51:15;;;;;;;;;;;;;;;8.32;83.50;98524.94;4972965;28;19904;-75
2021/12/01 12:53:59;;;;;;;;;;;;;;;8.26;83.16;98542.28;4981234;28;19923;-75
2021/12/01 12:56:25;;;;;;;;;;;;;;;8.24;83.73;98533.75;4982840;28;20413;-77
2021/12/01 12:58:50;;;;;;;;;;;;;;;8.38;83.43;98540.06;4981034;28;19914;-76
2021/12/01 13:01:34;;;;;;;;;;;;;;;8.20;83.77;98543.00;4964325;28;19912;-75
2021/12/01 13:03:59;;;;;;;;;;;;;;;8.14;84.20;98533.97;4984098;28;19911;-77